CheckWX is a tool to help pilots better visualize weather data.  It is not intended as a substitute for an official pre-flight weather briefing.

14:54:12 UTC

FMNN TAF
Fascene Airport
Nosy Be, Madagascar
TAF FMNN 231100Z 2312/2412 VRB05KT 9999 SCT020CB SCT040 PROB40 TEMPO 2312/2320 4500 TSRA

Mar-23@
12:00 UTC

Mar-23 @ 12:00 UTC

Mar-24@
12:00 UTC

Mar-24 @ 12:00 UTC

TAF FMNN 231100Z 2312/2412 VRB05KT 9999 SCT020CB SCT040
Wind
  • Variable at 5 KTS
Cloud Levels
  • Scattered at 2,000' AGL
  • Scattered at 4,000' AGL

Mar-23@
12:00 UTC

Mar-23 @ 12:00 UTC

Mar-23@
20:00 UTC

Mar-23 @ 20:00 UTC

PROB40 TEMPO 2312/2320 4500 TSRA

Temporary - 40% Likelihood

Temporary - 40% Likelihood during this time.

Conditions
Thunderstorm, Rain